Time;durP1;ratioP1;P1;durP2;ratioP2;P2;SDS_P1;SDS_P2;PMS_P1;PMS_P2;Temp;Humidity;BMP_temperature;BMP_pressure;BME280_temperature;BME280_humidity;BME280_pressure;Samples;Min_cycle;Max_cycle;Signal;HPM_P1;HPM_P2
2023/11/11 00:14:03;;;;;;;3.30;0.90;;;8.40;1.00;;;;;;4939963;29;20528;-89
2023/11/11 00:34:02;;;;;;;2.42;1.13;;;8.50;1.00;;;;;;4697411;22;20637;-90
2023/11/11 00:36:28;;;;;;;2.45;0.90;;;8.30;1.00;;;;;;4986644;28;20418;-84
2023/11/11 00:38:54;;;;;;;1.45;0.95;;;8.10;1.00;;;;;;4985516;28;20559;-84
2023/11/11 00:41:20;;;;;;;1.67;0.90;;;8.20;1.00;;;;;;5001076;28;20482;-85
2023/11/11 00:43:45;;;;;;;1.83;0.90;;;8.10;1.00;;;;;;5017876;28;20402;-84
2023/11/11 00:46:11;;;;;;;3.47;0.93;;;8.20;1.00;;;;;;5017617;28;20398;-84
2023/11/11 00:48:37;;;;;;;1.60;0.60;;;8.40;1.00;;;;;;5000787;28;20594;-84
2023/11/11 00:51:03;;;;;;;2.33;0.70;;;8.30;1.00;;;;;;5017500;28;20386;-83
2023/11/11 00:53:29;;;;;;;1.38;0.60;;;8.40;1.00;;;;;;5024400;28;20406;-85
2023/11/11 00:55:54;;;;;;;1.30;0.52;;;8.40;1.00;;;;;;5024264;28;20424;-84
2023/11/11 00:58:21;;;;;;;1.00;0.52;;;8.40;1.00;;;;;;5018849;28;20406;-85
2023/11/11 01:00:46;;;;;;;1.90;0.80;;;8.50;1.00;;;;;;5001934;28;20468;-85
2023/11/11 01:03:12;;;;;;;1.37;0.70;;;8.40;1.00;;;;;;5033510;28;20389;-86
2023/11/11 01:05:39;;;;;;;2.60;0.80;;;8.50;1.00;;;;;;5022483;28;20413;-86
2023/11/11 01:08:05;;;;;;;1.88;0.60;;;8.40;1.00;;;;;;5018536;28;20549;-84
2023/11/11 01:10:34;;;;;;;1.50;0.70;;;8.50;1.00;;;;;;5026564;28;20405;-85
2023/11/11 01:13:00;;;;;;;0.90;0.50;;;8.40;1.00;;;;;;5001301;28;20426;-84
2023/11/11 01:15:26;;;;;;;0.80;0.50;;;8.40;1.00;;;;;;5025340;28;20418;-84
2023/11/11 01:17:53;;;;;;;0.80;0.60;;;8.50;1.00;;;;;;5016876;28;20429;-85
2023/11/11 01:20:18;;;;;;;1.70;0.73;;;8.50;1.00;;;;;;5017735;28;20389;-85
2023/11/11 01:22:44;;;;;;;0.90;0.60;;;8.60;1.00;;;;;;5019274;28;20442;-85
2023/11/11 01:25:12;;;;;;;0.85;0.50;;;9.80;1.00;;;;;;5001927;28;20402;-85
2023/11/11 01:27:41;;;;;;;0.70;0.50;;;8.60;1.00;;;;;;5001310;28;20398;-86
2023/11/11 01:30:07;;;;;;;1.10;0.60;;;8.70;1.00;;;;;;5000733;28;20382;-84
2023/11/11 01:32:33;;;;;;;0.80;0.50;;;8.70;1.00;;;;;;5008255;28;20426;-84
2023/11/11 01:34:59;;;;;;;0.67;0.40;;;8.60;1.00;;;;;;5001063;28;20413;-85
2023/11/11 01:37:26;;;;;;;0.80;0.50;;;8.70;1.00;;;;;;5001550;28;20871;-85
2023/11/11 01:39:51;;;;;;;1.48;0.60;;;8.70;1.00;;;;;;4982223;28;20401;-84
2023/11/11 01:42:18;;;;;;;0.90;0.47;;;8.80;1.00;;;;;;4981670;28;20402;-86
2023/11/11 01:44:44;;;;;;;0.88;0.52;;;8.70;1.00;;;;;;4980860;28;20398;-83
2023/11/11 01:47:10;;;;;;;1.60;0.60;;;8.70;1.00;;;;;;5008099;28;20390;-83
2023/11/11 01:49:36;;;;;;;1.00;0.60;;;8.70;1.00;;;;;;5017649;28;20386;-83
2023/11/11 01:52:03;;;;;;;1.30;0.50;;;8.70;1.00;;;;;;4998911;28;20491;-82
2023/11/11 01:54:29;;;;;;;0.60;0.50;;;8.60;1.00;;;;;;5016546;28;20473;-84
2023/11/11 01:56:57;;;;;;;1.20;0.70;;;8.60;1.00;;;;;;5010198;28;20387;-84
2023/11/11 01:59:25;;;;;;;1.40;0.50;;;8.60;1.00;;;;;;5005074;28;20390;-84
2023/11/11 02:01:51;;;;;;;2.78;0.60;;;8.60;1.00;;;;;;5002115;28;20807;-83
2023/11/11 02:04:17;;;;;;;0.82;0.60;;;8.50;1.00;;;;;;5000247;28;20413;-83
2023/11/11 02:06:47;;;;;;;0.70;0.70;;;8.60;1.00;;;;;;4998408;28;20394;-83
2023/11/11 02:09:15;;;;;;;1.20;0.55;;;8.60;1.00;;;;;;4990216;28;20398;-83
2023/11/11 02:11:41;;;;;;;1.10;0.80;;;8.60;1.00;;;;;;4997695;28;20486;-82
2023/11/11 02:14:08;;;;;;;2.00;0.60;;;8.80;1.00;;;;;;4981885;28;20520;-83
2023/11/11 02:16:34;;;;;;;1.00;0.60;;;8.60;1.00;;;;;;4982970;28;20393;-83
2023/11/11 02:19:00;;;;;;;1.10;0.60;;;8.50;1.00;;;;;;4999004;28;20378;-82
2023/11/11 02:21:31;;;;;;;0.75;0.60;;;8.50;1.00;;;;;;4981912;28;20429;-83
2023/11/11 02:24:02;;;;;;;3.10;0.90;;;8.40;1.00;;;;;;5003880;28;20497;-83
2023/11/11 02:26:27;;;;;;;1.08;0.68;;;8.30;1.00;;;;;;5000324;28;20390;-83
2023/11/11 02:28:53;;;;;;;2.60;0.70;;;8.30;1.00;;;;;;4980958;28;20470;-82
2023/11/11 02:31:19;;;;;;;1.57;0.70;;;8.60;1.00;;;;;;4981414;28;20418;-83
2023/11/11 02:33:44;;;;;;;1.33;0.60;;;8.00;1.00;;;;;;4983226;28;20887;-83
2023/11/11 02:36:10;;;;;;;1.37;0.70;;;8.30;1.00;;;;;;4983656;28;20509;-83
2023/11/11 02:38:36;;;;;;;2.75;0.85;;;8.30;1.00;;;;;;4999560;28;20732;-83
2023/11/11 02:41:02;;;;;;;1.10;0.50;;;8.30;1.00;;;;;;5000178;28;20489;-83
2023/11/11 02:43:28;;;;;;;1.13;0.90;;;8.20;1.00;;;;;;4981311;28;20891;-83
2023/11/11 02:45:53;;;;;;;2.95;0.68;;;8.20;1.00;;;;;;5002196;28;20830;-83
2023/11/11 02:48:19;;;;;;;1.70;0.70;;;8.20;1.00;;;;;;4982481;28;20473;-83
2023/11/11 02:50:44;;;;;;;1.40;0.80;;;8.20;1.00;;;;;;4984711;28;20421;-83
2023/11/11 02:53:10;;;;;;;2.27;1.10;;;8.20;1.00;;;;;;4981999;28;20413;-84
2023/11/11 02:55:36;;;;;;;1.80;0.60;;;8.10;1.00;;;;;;4981367;28;20394;-84
2023/11/11 02:58:02;;;;;;;2.60;0.80;;;8.10;1.00;;;;;;4982658;28;20390;-83
2023/11/11 03:00:28;;;;;;;1.10;0.70;;;8.10;1.00;;;;;;4982360;28;20402;-84
2023/11/11 03:02:54;;;;;;;0.88;0.60;;;8.10;1.00;;;;;;4999326;28;20436;-83
2023/11/11 03:05:19;;;;;;;0.70;0.60;;;8.10;1.00;;;;;;4982932;28;20438;-83
2023/11/11 03:07:45;;;;;;;1.70;0.80;;;8.20;1.00;;;;;;4984996;28;21122;-83
2023/11/11 03:10:12;;;;;;;1.00;0.70;;;8.10;1.00;;;;;;4985789;28;20775;-85
2023/11/11 03:12:38;;;;;;;1.40;0.70;;;8.20;1.00;;;;;;5000432;28;20482;-83
2023/11/11 03:15:04;;;;;;;0.80;0.55;;;7.50;1.00;;;;;;4983377;28;20466;-83
2023/11/11 03:17:31;;;;;;;0.70;0.60;;;8.10;1.00;;;;;;4999704;28;20391;-83
2023/11/11 03:19:57;;;;;;;1.20;0.43;;;8.10;1.00;;;;;;4983226;28;20401;-84
2023/11/11 03:22:23;;;;;;;0.70;0.50;;;8.20;1.00;;;;;;5001011;28;20454;-83
2023/11/11 03:24:49;;;;;;;0.50;0.50;;;8.20;1.00;;;;;;5000675;28;20382;-83
2023/11/11 03:27:14;;;;;;;1.05;0.60;;;8.10;1.00;;;;;;5001034;28;20854;-83
2023/11/11 03:29:40;;;;;;;1.27;0.57;;;8.20;1.00;;;;;;4998984;28;20402;-83
2023/11/11 03:32:07;;;;;;;0.90;0.57;;;8.20;1.00;;;;;;4983790;28;20410;-82
2023/11/11 03:34:32;;;;;;;1.80;0.60;;;8.30;1.00;;;;;;4983124;28;20402;-83
2023/11/11 03:36:58;;;;;;;1.10;0.60;;;8.20;1.00;;;;;;4998541;28;20414;-83
2023/11/11 03:39:25;;;;;;;1.70;0.60;;;8.20;1.00;;;;;;4999030;28;20383;-82
2023/11/11 03:41:50;;;;;;;0.80;0.60;;;8.20;1.00;;;;;;5000880;28;20912;-83
2023/11/11 03:44:16;;;;;;;1.00;0.60;;;8.10;1.00;;;;;;4999919;28;20395;-82
2023/11/11 03:46:41;;;;;;;0.73;0.57;;;8.10;1.00;;;;;;4999413;28;20433;-83
2023/11/11 03:49:07;;;;;;;0.80;0.50;;;8.00;1.00;;;;;;5002596;28;20394;-82
2023/11/11 03:51:32;;;;;;;1.43;1.10;;;8.00;1.00;;;;;;5001214;28;20407;-82
2023/11/11 03:53:58;;;;;;;1.13;0.90;;;8.00;1.00;;;;;;5003428;28;20386;-82
2023/11/11 03:56:24;;;;;;;1.50;0.70;;;8.10;1.00;;;;;;4984600;28;20394;-83
2023/11/11 03:58:50;;;;;;;0.80;0.60;;;8.00;1.00;;;;;;4982440;28;20395;-84
2023/11/11 04:01:15;;;;;;;0.90;0.80;;;8.00;1.00;;;;;;4999778;28;20433;-83
2023/11/11 04:03:43;;;;;;;1.80;0.63;;;8.00;1.00;;;;;;4984085;28;20398;-83
2023/11/11 04:06:09;;;;;;;0.80;0.60;;;8.00;1.00;;;;;;4981642;28;20383;-83
2023/11/11 04:08:36;;;;;;;1.50;0.52;;;8.00;1.00;;;;;;4981465;28;20416;-82
2023/11/11 04:11:06;;;;;;;1.00;0.70;;;8.10;1.00;;;;;;5003848;28;20763;-84
2023/11/11 04:13:32;;;;;;;1.20;0.70;;;8.20;1.00;;;;;;4984756;28;20410;-82
2023/11/11 04:15:58;;;;;;;1.38;0.63;;;8.20;1.00;;;;;;5001955;28;20402;-83
2023/11/11 04:18:23;;;;;;;1.13;0.65;;;7.60;1.00;;;;;;5003243;28;20402;-83
2023/11/11 04:20:49;;;;;;;3.80;1.20;;;8.20;1.00;;;;;;4985552;28;20415;-83
2023/11/11 04:23:14;;;;;;;1.60;0.60;;;7.90;1.00;;;;;;4985313;28;20509;-83
2023/11/11 04:25:40;;;;;;;1.37;0.60;;;8.20;1.00;;;;;;5006206;28;20383;-83
2023/11/11 04:28:06;;;;;;;0.60;0.50;;;8.10;1.00;;;;;;5004250;28;20394;-83
2023/11/11 04:30:31;;;;;;;0.57;0.50;;;8.10;1.00;;;;;;4987731;28;20398;-82
2023/11/11 04:32:57;;;;;;;0.70;0.50;;;8.10;1.00;;;;;;5002803;28;20414;-83
2023/11/11 04:35:22;;;;;;;0.73;0.50;;;8.10;1.00;;;;;;4985953;28;20536;-82
2023/11/11 04:37:49;;;;;;;1.40;0.70;;;8.10;1.00;;;;;;5005879;28;20390;-83
2023/11/11 04:40:14;;;;;;;1.40;0.50;;;8.20;1.00;;;;;;4988076;28;20398;-83
2023/11/11 04:42:42;;;;;;;0.70;0.68;;;8.20;1.00;;;;;;4986971;28;20390;-83
2023/11/11 04:45:08;;;;;;;1.80;0.60;;;8.10;1.00;;;;;;4985906;28;20489;-83
2023/11/11 04:47:34;;;;;;;0.60;0.50;;;8.20;1.00;;;;;;5007089;28;20390;-82
2023/11/11 04:49:59;;;;;;;0.80;0.50;;;8.10;1.00;;;;;;5003585;28;20395;-83
2023/11/11 04:52:25;;;;;;;1.60;0.50;;;8.20;1.00;;;;;;5005529;28;20846;-83
2023/11/11 04:54:51;;;;;;;0.70;0.40;;;8.10;1.00;;;;;;4989524;28;20394;-84
2023/11/11 04:57:16;;;;;;;0.50;0.43;;;8.20;1.00;;;;;;4988436;28;20763;-83
2023/11/11 04:59:42;;;;;;;1.23;0.50;;;8.10;1.00;;;;;;4988776;28;20389;-83
2023/11/11 05:02:10;;;;;;;1.20;0.50;;;8.10;1.00;;;;;;5004875;28;20399;-84
2023/11/11 05:04:36;;;;;;;0.60;0.45;;;8.10;1.00;;;;;;5003376;28;20847;-83
2023/11/11 05:07:03;;;;;;;2.20;0.60;;;8.10;1.00;;;;;;5004862;28;20430;-83
2023/11/11 05:09:29;;;;;;;0.70;0.50;;;8.10;1.00;;;;;;4987921;28;20406;-82
2023/11/11 05:11:55;;;;;;;0.80;0.60;;;8.10;1.00;;;;;;5004117;28;20437;-83
2023/11/11 05:14:23;;;;;;;0.87;0.70;;;7.90;1.00;;;;;;4987401;28;20390;-83
2023/11/11 05:16:52;;;;;;;1.15;0.60;;;7.90;1.00;;;;;;4983172;28;20469;-83
2023/11/11 05:19:18;;;;;;;0.90;0.60;;;7.90;1.00;;;;;;5006524;28;20867;-82
2023/11/11 05:21:44;;;;;;;0.90;0.50;;;7.90;1.00;;;;;;4985212;28;20455;-82
2023/11/11 05:24:10;;;;;;;1.10;0.50;;;7.80;1.00;;;;;;4984209;28;20402;-83
2023/11/11 05:26:38;;;;;;;1.30;0.60;;;7.80;1.00;;;;;;5003875;28;20906;-83
2023/11/11 05:29:05;;;;;;;1.97;0.70;;;7.80;1.00;;;;;;5006609;28;20394;-83
2023/11/11 05:31:31;;;;;;;0.60;0.40;;;7.90;1.00;;;;;;4987310;28;20410;-83
2023/11/11 05:33:57;;;;;;;1.30;0.57;;;7.80;1.00;;;;;;4988092;28;20403;-82
2023/11/11 05:36:24;;;;;;;1.10;0.50;;;7.80;1.00;;;;;;4987837;28;20402;-82
2023/11/11 05:38:50;;;;;;;0.90;0.50;;;7.90;1.00;;;;;;4997982;28;20437;-82
2023/11/11 05:41:15;;;;;;;0.60;0.60;;;7.80;1.00;;;;;;4983257;28;20399;-82
2023/11/11 05:43:41;;;;;;;1.00;0.60;;;7.70;1.00;;;;;;4980107;28;20402;-82
2023/11/11 05:46:10;;;;;;;0.98;0.60;;;7.80;1.00;;;;;;4980414;28;20537;-83
2023/11/11 05:48:39;;;;;;;1.08;0.70;;;7.80;1.00;;;;;;4978907;28;20394;-83
2023/11/11 05:51:06;;;;;;;1.85;0.65;;;7.80;1.00;;;;;;4979786;28;20421;-82
2023/11/11 05:53:32;;;;;;;1.60;0.70;;;7.90;1.00;;;;;;5001010;28;20409;-82
2023/11/11 05:55:57;;;;;;;1.02;0.50;;;7.80;1.00;;;;;;5008125;28;20403;-83
2023/11/11 05:58:23;;;;;;;0.63;0.40;;;7.80;1.00;;;;;;5012469;28;20414;-83
2023/11/11 06:00:49;;;;;;;1.00;0.60;;;7.80;1.00;;;;;;5010651;28;20418;-83
2023/11/11 06:03:14;;;;;;;1.20;0.60;;;7.80;1.00;;;;;;5000757;28;20414;-83
2023/11/11 06:05:40;;;;;;;1.40;0.50;;;7.80;1.00;;;;;;4980478;28;20458;-83
2023/11/11 06:08:09;;;;;;;0.60;0.40;;;7.80;1.00;;;;;;4997890;28;20390;-82
2023/11/11 06:10:36;;;;;;;0.75;0.63;;;7.80;1.00;;;;;;4997782;28;20917;-82
2023/11/11 06:13:05;;;;;;;1.20;0.70;;;7.80;1.00;;;;;;4977979;28;20414;-82
2023/11/11 06:15:31;;;;;;;1.10;0.80;;;7.70;1.00;;;;;;4980484;28;20452;-82
2023/11/11 06:17:57;;;;;;;2.17;0.80;;;7.80;1.00;;;;;;4984709;28;20814;-82
2023/11/11 06:20:22;;;;;;;3.15;0.70;;;7.70;1.00;;;;;;4986183;28;20478;-82
2023/11/11 06:22:52;;;;;;;0.70;0.50;;;7.90;1.00;;;;;;4986035;28;20426;-82
2023/11/11 06:25:19;;;;;;;1.00;0.60;;;7.60;1.00;;;;;;5002553;28;20762;-83
2023/11/11 06:27:45;;;;;;;1.50;0.60;;;7.60;1.00;;;;;;5004473;28;20470;-82
2023/11/11 06:30:11;;;;;;;1.15;0.70;;;7.50;1.00;;;;;;5016800;28;20427;-82
2023/11/11 06:32:38;;;;;;;1.60;1.00;;;7.50;1.00;;;;;;5016155;28;20531;-82
2023/11/11 06:35:05;;;;;;;1.13;0.80;;;7.50;1.00;;;;;;4999603;28;20458;-82
2023/11/11 06:37:31;;;;;;;1.60;0.80;;;7.50;1.00;;;;;;5001414;28;20395;-82
2023/11/11 06:39:56;;;;;;;1.02;0.70;;;7.50;1.00;;;;;;4980720;28;20390;-82
2023/11/11 06:42:22;;;;;;;1.98;0.80;;;7.30;1.00;;;;;;5003484;28;20390;-82
2023/11/11 06:44:47;;;;;;;1.50;0.60;;;7.50;1.00;;;;;;4997794;28;20418;-82
2023/11/11 06:47:14;;;;;;;1.90;0.80;;;7.50;1.00;;;;;;4983624;28;20391;-82
2023/11/11 06:49:41;;;;;;;1.30;0.80;;;7.00;1.00;;;;;;5000387;28;20879;-82
2023/11/11 06:52:06;;;;;;;1.30;0.80;;;7.30;1.00;;;;;;5000325;28;20410;-83
2023/11/11 06:54:32;;;;;;;0.70;0.70;;;7.40;1.00;;;;;;5001144;28;20489;-82
2023/11/11 06:56:57;;;;;;;1.67;1.00;;;7.50;1.00;;;;;;4989483;28;20391;-83
2023/11/11 06:59:23;;;;;;;1.27;0.80;;;7.50;1.00;;;;;;5005149;28;20397;-82
2023/11/11 07:01:49;;;;;;;1.27;0.70;;;7.60;1.00;;;;;;5011419;28;20382;-82
2023/11/11 07:04:15;;;;;;;1.50;0.80;;;7.60;1.00;;;;;;5012200;28;20429;-82
2023/11/11 07:06:41;;;;;;;1.00;0.90;;;7.30;1.00;;;;;;5015672;28;20398;-83
2023/11/11 07:09:07;;;;;;;1.10;0.90;;;7.30;1.00;;;;;;5006166;28;20413;-83
2023/11/11 07:11:32;;;;;;;1.42;0.90;;;7.60;1.00;;;;;;5003577;28;20418;-83
2023/11/11 07:13:58;;;;;;;1.10;0.80;;;7.60;1.00;;;;;;4991125;28;20386;-83
2023/11/11 07:16:25;;;;;;;1.50;0.80;;;7.30;1.00;;;;;;5001747;28;20382;-83
2023/11/11 07:18:51;;;;;;;1.10;0.60;;;7.50;1.00;;;;;;5006441;28;20409;-83
2023/11/11 07:21:17;;;;;;;1.42;0.85;;;7.60;1.00;;;;;;5004982;28;20406;-83
2023/11/11 07:23:43;;;;;;;0.70;0.60;;;7.50;1.00;;;;;;5002059;28;20453;-83
2023/11/11 07:26:08;;;;;;;0.70;0.70;;;7.80;1.00;;;;;;4999493;28;20386;-83
2023/11/11 07:28:34;;;;;;;1.10;0.70;;;7.60;1.00;;;;;;5001240;28;20430;-84
2023/11/11 07:31:01;;;;;;;1.08;0.90;;;7.60;1.00;;;;;;4997438;28;20914;-83
2023/11/11 07:33:26;;;;;;;1.40;0.80;;;7.80;1.00;;;;;;5022119;28;20396;-83
2023/11/11 07:35:52;;;;;;;1.00;0.80;;;7.60;1.00;;;;;;5010043;28;20451;-83
2023/11/11 07:38:20;;;;;;;1.80;0.90;;;7.50;1.00;;;;;;5001034;28;20453;-83
2023/11/11 07:40:45;;;;;;;1.40;1.00;;;7.60;1.00;;;;;;4973163;28;20422;-83
2023/11/11 07:43:11;;;;;;;0.90;0.80;;;7.60;1.00;;;;;;4983363;28;20417;-83
2023/11/11 07:45:36;;;;;;;1.80;1.20;;;7.60;1.00;;;;;;5006638;28;20945;-82
2023/11/11 08:06:23;;;;;;;;;;;;;;;;;;;;;
2023/11/11 08:26:21;;;;;;;1.73;1.13;;;11.20;1.00;;;;;;4945673;29;20370;-82
2023/11/11 08:29:33;;;;;;;1.30;1.10;;;10.60;1.00;;;;;;4938090;29;20403;-83
2023/11/11 08:32:10;;;;;;;1.40;0.80;;;11.30;1.00;;;;;;4956953;28;20428;-82
2023/11/11 08:34:44;;;;;;;1.30;1.20;;;11.00;1.00;;;;;;4970825;28;20394;-82
2023/11/11 08:37:20;;;;;;;1.30;0.80;;;8.00;1.00;;;;;;5000676;28;20390;-82
2023/11/11 08:39:51;;;;;;;2.00;1.00;;;7.90;1.00;;;;;;4986856;28;20390;-82
2023/11/11 08:42:39;;;;;;;1.50;1.10;;;7.90;1.00;;;;;;5000951;28;20402;-82
2023/11/11 08:45:11;;;;;;;3.70;1.13;;;10.00;1.00;;;;;;5002638;28;20429;-82
2023/11/11 08:48:38;;;;;;;1.55;1.00;;;8.10;1.00;;;;;;4998010;28;20395;-83
2023/11/11 08:51:11;;;;;;;;;;;;;;;;;;;;;
2023/11/11 08:53:40;;;;;;;1.65;1.10;;;8.60;1.00;;;;;;5021524;28;20475;-82
2023/11/11 09:00:12;;;;;;;1.80;1.20;;;9.30;1.00;;;;;;5012407;28;20389;-84
2023/11/11 09:02:58;;;;;;;2.00;1.20;;;7.80;1.00;;;;;;5002285;28;20388;-83
2023/11/11 09:06:02;;;;;;;;;;;;;;;;;;;;;
2023/11/11 09:08:30;;;;;;;2.03;1.20;;;9.00;1.00;;;;;;5003576;28;20540;-82
2023/11/11 09:11:03;;;;;;;2.08;1.20;;;9.40;1.00;;;;;;5009093;28;20402;-84
2023/11/11 09:13:31;;;;;;;1.48;0.93;;;6.30;1.00;;;;;;5004841;28;20422;-83
2023/11/11 09:16:03;;;;;;;1.27;0.90;;;7.80;1.00;;;;;;5000457;28;20387;-83
2023/11/11 09:18:47;;;;;;;1.77;1.05;;;8.40;1.00;;;;;;5001382;28;20946;-83
2023/11/11 09:21:23;;;;;;;2.00;0.90;;;8.60;1.00;;;;;;5001767;28;20409;-83
2023/11/11 09:23:53;;;;;;;1.60;1.00;;;8.90;1.00;;;;;;5003599;28;20375;-83
2023/11/11 09:26:20;;;;;;;1.50;0.80;;;8.80;1.00;;;;;;5020391;28;20389;-83
2023/11/11 09:28:55;;;;;;;1.13;0.73;;;8.80;1.00;;;;;;5023237;28;20393;-84
2023/11/11 09:31:21;;;;;;;1.67;1.02;;;10.10;1.00;;;;;;5023875;28;20396;-83
2023/11/11 09:33:47;;;;;;;1.30;1.10;;;9.00;1.00;;;;;;5023163;28;20384;-83
2023/11/11 09:36:18;;;;;;;2.37;1.00;;;8.90;1.00;;;;;;5004992;28;20982;-83
2023/11/11 09:38:46;;;;;;;1.60;0.80;;;9.80;1.00;;;;;;4989818;28;20794;-84
2023/11/11 09:41:15;;;;;;;2.20;1.00;;;8.70;1.00;;;;;;5002697;28;20390;-83
2023/11/11 09:43:41;;;;;;;2.15;1.10;;;8.90;1.00;;;;;;4991601;28;20399;-84
2023/11/11 09:46:18;;;;;;;1.50;0.83;;;9.00;1.00;;;;;;4996495;28;20441;-85
2023/11/11 09:48:53;;;;;;;1.27;0.90;;;;;;;;;;4968973;28;20776;-85
2023/11/11 09:51:20;;;;;;;1.80;1.00;;;9.10;1.00;;;;;;5006816;28;20988;-85
2023/11/11 09:53:47;;;;;;;1.30;0.80;;;8.90;1.00;;;;;;4997060;28;20836;-85
2023/11/11 09:56:13;;;;;;;1.08;0.70;;;9.00;1.00;;;;;;4997970;28;20390;-84
2023/11/11 09:58:39;;;;;;;1.15;0.90;;;9.10;1.00;;;;;;5011634;28;20382;-83
2023/11/11 10:01:04;;;;;;;1.63;0.70;;;8.90;1.00;;;;;;5000044;28;20538;-85
2023/11/11 10:03:30;;;;;;;0.90;0.70;;;9.00;1.00;;;;;;4995767;28;20393;-84
2023/11/11 10:05:56;;;;;;;0.90;0.70;;;9.20;1.00;;;;;;4994819;28;20421;-85
2023/11/11 10:08:24;;;;;;;2.00;1.10;;;9.10;1.00;;;;;;4988797;28;20447;-84
2023/11/11 10:10:52;;;;;;;1.75;0.90;;;8.60;1.00;;;;;;5002829;28;20401;-84
2023/11/11 10:13:19;;;;;;;1.60;0.82;;;9.40;1.00;;;;;;5012677;28;20409;-84
2023/11/11 10:15:45;;;;;;;1.40;1.00;;;9.30;1.00;;;;;;5014230;28;20381;-85
2023/11/11 10:18:11;;;;;;;1.70;0.80;;;9.30;1.00;;;;;;5002362;28;20435;-85
2023/11/11 10:20:37;;;;;;;2.63;0.90;;;9.20;1.00;;;;;;5018542;28;20401;-86
2023/11/11 10:40:49;;;;;;;1.15;1.05;;;9.30;1.00;;;;;;4957163;28;20420;-84
2023/11/11 10:43:19;;;;;;;2.40;1.40;;;9.40;1.00;;;;;;4996652;28;20426;-84
2023/11/11 10:45:46;;;;;;;1.25;0.90;;;6.10;1.00;;;;;;4994279;28;20386;-86
2023/11/11 10:48:13;;;;;;;2.85;0.90;;;9.50;1.00;;;;;;4994984;28;20395;-82
2023/11/11 10:50:40;;;;;;;1.93;1.00;;;9.50;1.00;;;;;;4998355;28;20424;-82
2023/11/11 10:53:07;;;;;;;5.18;1.20;;;9.50;1.00;;;;;;4997619;28;20411;-85
2023/11/11 10:55:33;;;;;;;1.90;1.05;;;9.50;1.00;;;;;;5001373;28;20405;-83
2023/11/11 10:58:00;;;;;;;2.08;0.80;;;9.60;1.00;;;;;;4978843;28;20418;-84
2023/11/11 11:00:26;;;;;;;1.40;1.02;;;9.40;1.00;;;;;;5003600;28;20393;-85
2023/11/11 11:02:54;;;;;;;1.80;0.90;;;9.40;1.00;;;;;;4980793;28;20398;-85
2023/11/11 11:05:39;;;;;;;1.77;1.00;;;9.00;1.00;;;;;;5009212;28;20482;-84
2023/11/11 11:08:23;;;;;;;2.20;1.30;;;9.50;1.00;;;;;;4999341;28;20406;-85
2023/11/11 11:11:16;;;;;;;1.30;0.70;;;10.20;1.00;;;;;;5015496;28;20434;-83
2023/11/11 11:13:45;;;;;;;1.00;0.80;;;11.40;1.00;;;;;;5014191;28;20422;-84
2023/11/11 11:16:26;;;;;;;1.20;1.00;;;11.60;1.00;;;;;;5015716;28;20434;-85
2023/11/11 11:18:59;;;;;;;2.30;0.82;;;11.60;1.00;;;;;;4993506;28;20410;-88
2023/11/11 11:21:28;;;;;;;0.82;0.75;;;12.00;1.00;;;;;;4995357;28;20426;-87
2023/11/11 11:23:54;;;;;;;2.88;0.90;;;12.50;1.00;;;;;;4994964;28;20805;-88
2023/11/11 11:26:31;;;;;;;2.70;0.90;;;12.20;1.00;;;;;;4978326;28;20406;-86
2023/11/11 11:29:09;;;;;;;4.20;0.80;;;11.60;1.00;;;;;;5007291;28;20402;-84
2023/11/11 11:32:06;;;;;;;1.55;1.05;;;11.20;1.00;;;;;;5002603;28;20420;-81
2023/11/11 11:34:42;;;;;;;1.70;0.80;;;10.40;1.00;;;;;;5013285;28;20409;-82
2023/11/11 11:37:10;;;;;;;1.60;0.90;;;10.10;1.00;;;;;;5012270;28;20483;-81
2023/11/11 11:39:50;;;;;;;2.00;0.90;;;9.80;1.00;;;;;;5021629;28;20397;-81
2023/11/11 11:42:24;;;;;;;1.40;0.80;;;9.70;1.00;;;;;;5017188;28;20433;-81
2023/11/11 11:44:54;;;;;;;1.00;0.90;;;9.40;1.00;;;;;;5006521;28;20443;-81
2023/11/11 11:47:22;;;;;;;2.17;1.15;;;9.70;1.00;;;;;;5003804;28;20442;-81
2023/11/11 11:49:49;;;;;;;2.63;1.20;;;9.50;1.00;;;;;;4996027;28;20503;-81
2023/11/11 11:52:15;;;;;;;1.60;1.27;;;9.40;1.00;;;;;;5002001;28;20513;-81
2023/11/11 11:54:41;;;;;;;2.08;1.27;;;9.30;1.00;;;;;;5002642;28;20433;-81
2023/11/11 11:57:08;;;;;;;2.95;1.10;;;9.40;1.00;;;;;;5012046;28;20407;-82
2023/11/11 11:59:34;;;;;;;1.90;1.20;;;9.10;1.00;;;;;;4984882;28;20491;-81
2023/11/11 12:02:01;;;;;;;1.20;1.00;;;8.80;1.00;;;;;;4984314;28;20434;-81
2023/11/11 12:04:27;;;;;;;2.40;1.40;;;8.60;1.00;;;;;;5008229;28;20414;-80
2023/11/11 12:06:53;;;;;;;1.45;1.20;;;8.50;1.00;;;;;;4987536;28;20433;-81
2023/11/11 12:09:19;;;;;;;1.90;1.20;;;8.40;1.00;;;;;;4988169;28;20501;-84
2023/11/11 12:11:45;;;;;;;1.58;1.13;;;8.40;1.00;;;;;;4995059;28;20397;-84
2023/11/11 12:16:52;;;;;;;1.55;1.30;;;8.20;1.00;;;;;;5017354;22;20437;-85
2023/11/11 12:19:21;;;;;;;2.15;1.13;;;10.20;1.00;;;;;;5001185;28;20404;-84
2023/11/11 12:21:51;;;;;;;1.88;1.10;;;9.80;1.00;;;;;;5020787;28;20399;-84
2023/11/11 12:24:21;;;;;;;1.83;1.27;;;8.90;1.00;;;;;;5015337;28;20416;-81
2023/11/11 12:26:47;;;;;;;1.70;1.10;;;9.30;1.00;;;;;;5016808;28;20392;-83
2023/11/11 12:29:13;;;;;;;3.35;1.13;;;10.00;1.00;;;;;;4999089;28;20417;-81
2023/11/11 12:31:53;;;;;;;2.80;1.20;;;9.70;1.00;;;;;;4996819;28;20419;-81
2023/11/11 12:34:26;;;;;;;1.90;1.20;;;10.00;1.00;;;;;;5008051;28;20419;-80
2023/11/11 12:36:53;;;;;;;1.40;1.10;;;10.20;1.00;;;;;;4998544;28;20419;-82
2023/11/11 12:39:19;;;;;;;1.80;0.90;;;10.00;1.00;;;;;;5002110;28;20917;-83
2023/11/11 12:41:52;;;;;;;2.47;1.00;;;10.00;1.00;;;;;;5004294;28;20497;-85
2023/11/11 12:44:20;;;;;;;1.70;1.08;;;10.00;1.00;;;;;;5020709;28;20432;-80
2023/11/11 12:46:48;;;;;;;2.40;1.10;;;10.30;1.00;;;;;;5016541;28;20404;-81
2023/11/11 12:49:15;;;;;;;1.30;1.20;;;10.20;1.00;;;;;;4999184;28;20389;-82
2023/11/11 12:51:44;;;;;;;1.40;0.98;;;10.10;1.00;;;;;;5016564;28;20400;-82
2023/11/11 12:54:11;;;;;;;2.47;1.80;;;10.30;1.00;;;;;;4999136;28;20389;-82
2023/11/11 12:56:48;;;;;;;1.73;1.30;;;10.00;1.00;;;;;;5005239;28;20396;-83
2023/11/11 12:59:14;;;;;;;2.38;1.63;;;10.50;1.00;;;;;;5017189;28;20790;-82
2023/11/11 13:01:40;;;;;;;1.83;1.23;;;10.60;1.00;;;;;;4999331;28;20434;-83
2023/11/11 13:04:12;;;;;;;1.67;1.15;;;11.10;1.00;;;;;;4998008;28;20443;-83
2023/11/11 13:06:38;;;;;;;1.33;1.10;;;11.30;1.00;;;;;;5016291;28;20393;-82
2023/11/11 13:09:10;;;;;;;1.80;1.00;;;10.70;1.00;;;;;;4998893;28;20381;-82
2023/11/11 13:11:36;;;;;;;1.73;1.20;;;10.40;1.00;;;;;;4998714;28;20813;-82
2023/11/11 13:14:11;;;;;;;1.88;0.70;;;10.80;1.00;;;;;;4998482;28;20400;-83
2023/11/11 13:16:36;;;;;;;1.10;1.00;;;10.90;1.00;;;;;;5015091;28;20912;-82
2023/11/11 13:19:02;;;;;;;1.60;1.10;;;10.80;1.00;;;;;;5022896;28;20387;-83
2023/11/11 13:21:28;;;;;;;0.83;0.80;;;11.20;1.00;;;;;;5025708;28;20436;-83
2023/11/11 13:23:56;;;;;;;0.90;0.80;;;11.20;1.00;;;;;;4998342;28;20443;-82
2023/11/11 13:26:22;;;;;;;2.17;1.00;;;12.00;1.00;;;;;;4998252;28;20471;-83
2023/11/11 13:28:51;;;;;;;2.33;0.98;;;10.90;1.00;;;;;;4998399;28;20393;-81
2023/11/11 13:31:24;;;;;;;2.43;1.10;;;11.30;1.00;;;;;;4998133;28;20952;-81
2023/11/11 13:33:50;;;;;;;1.00;0.90;;;11.30;1.00;;;;;;4998478;28;20450;-81
2023/11/11 13:36:25;;;;;;;2.15;1.20;;;10.80;1.00;;;;;;4997165;28;20491;-81
2023/11/11 13:38:53;;;;;;;4.10;1.30;;;10.60;1.00;;;;;;4999767;28;20938;-80
2023/11/11 13:41:26;;;;;;;1.25;1.15;;;9.70;1.00;;;;;;4999184;28;20419;-81
2023/11/11 13:43:53;;;;;;;2.57;1.00;;;10.20;1.00;;;;;;4996209;28;20472;-80
2023/11/11 13:46:20;;;;;;;1.80;1.20;;;9.80;1.00;;;;;;5011492;28;20423;-81
2023/11/11 13:48:47;;;;;;;1.77;1.30;;;10.00;1.00;;;;;;5016069;28;20454;-82
2023/11/11 13:51:34;;;;;;;2.55;1.10;;;9.30;1.00;;;;;;5012524;28;20406;-80
2023/11/11 13:54:00;;;;;;;3.05;1.30;;;9.50;1.00;;;;;;5006380;28;20428;-81
2023/11/11 13:56:26;;;;;;;2.40;1.10;;;9.70;1.00;;;;;;5022087;28;20408;-79
2023/11/11 13:58:55;;;;;;;3.13;1.20;;;9.60;1.00;;;;;;5022023;28;21121;-82
2023/11/11 14:01:24;;;;;;;2.15;1.13;;;9.60;1.00;;;;;;5033649;28;20389;-82
2023/11/11 14:03:50;;;;;;;3.08;1.40;;;9.50;1.00;;;;;;5042671;28;20409;-83
2023/11/11 14:06:21;;;;;;;2.20;0.80;;;9.60;1.00;;;;;;5033782;28;20391;-83
2023/11/11 14:08:50;;;;;;;1.98;1.20;;;9.50;1.00;;;;;;5036780;22;21797;-85
2023/11/11 14:11:16;;;;;;;1.23;1.00;;;9.50;1.00;;;;;;5010914;28;20405;-86
2023/11/11 14:13:43;;;;;;;2.00;1.00;;;9.70;1.00;;;;;;5007640;28;20394;-85
2023/11/11 14:16:09;;;;;;;1.90;1.10;;;9.40;1.00;;;;;;5010239;28;20382;-86
2023/11/11 14:18:36;;;;;;;1.27;1.00;;;12.50;1.00;;;;;;5003882;28;20495;-85
2023/11/11 14:21:03;;;;;;;3.30;1.20;;;9.40;1.00;;;;;;5001685;28;20421;-86
2023/11/11 14:23:28;;;;;;;1.92;1.20;;;9.60;1.00;;;;;;4985577;28;20425;-86
2023/11/11 14:25:55;;;;;;;1.63;1.20;;;9.30;1.00;;;;;;4985997;28;20406;-86
2023/11/11 14:28:22;;;;;;;1.90;1.20;;;9.30;1.00;;;;;;5003077;28;20528;-85
2023/11/11 14:30:48;;;;;;;1.75;1.25;;;9.20;1.00;;;;;;5002079;28;20386;-85
2023/11/11 14:33:14;;;;;;;2.33;1.25;;;10.40;1.00;;;;;;4986843;28;20421;-84
2023/11/11 14:35:40;;;;;;;2.85;1.85;;;9.60;1.00;;;;;;5001355;28;20454;-87
2023/11/11 14:38:05;;;;;;;3.45;1.20;;;9.40;1.00;;;;;;4984506;28;20474;-84
2023/11/11 14:40:31;;;;;;;2.30;1.10;;;9.50;1.00;;;;;;4982162;28;20430;-86
2023/11/11 14:42:58;;;;;;;2.47;1.30;;;9.50;1.00;;;;;;4986733;28;20402;-86
2023/11/11 14:45:26;;;;;;;3.78;1.50;;;9.60;1.00;;;;;;4984826;28;20406;-86